^^

..:: Storico WU ::..




Lo storico viene creato da WUnderground con i dati che la stazione Meteomincio invia al loro server. L' aggiornamento viene fatto ogni 5 minuti circa, tuttavia possono esserci intervalli pił ampi a causa di errori, interruzioni di servizio o problemi nell' invio tramite FTP.


Storico stazione MeteoMincio
Giorno Sommario per Agosto 15, 2022 Unità:  Inglese    Metrico   Entrambi
Giorno Settimana Mese Anno
  Max: Min: Media:
Temperatura: 87.8 °F 69.8 °F 79 °F
Dew Point: 68 °F 62.6 °F 65.5 °F
Umidità: 86% 47% 66%
Velocità vento: 14.9mph 0mph 3.3mph
Raffica: 21.7mph - -
Direzione- - South
Pressione: 29.7 in 29.6 in -
Precipitazioni: 0 in    
 
 
Tabulato Dati per Agosto 15, 2022
Ora Temperatura Dew Point Pressione Direzione Velocità vento Raffica Umidità Intensità pioggia (oraria) Info solare Situazione
00:04 77 °F 66.2 °F 29.7 in West 1.9 mph 3.7 mph 70% 0 in 0.00 W/m2 unknown
00:09 77 °F 64.4 °F 29.7 in West 1.9 mph 3.7 mph 68% 0 in 0.00 W/m2 unknown
00:14 77 °F 64.4 °F 29.7 in West 2.5 mph 3.7 mph 67% 0 in 0.00 W/m2 unknown
00:19 77 °F 64.4 °F 29.7 in West 2.5 mph 3.7 mph 68% 0 in 0.00 W/m2 unknown
00:24 77 °F 66.2 °F 29.7 in West 2.5 mph 3.7 mph 70% 0 in 0.00 W/m2 unknown
00:29 75.2 °F 66.2 °F 29.7 in West 2.5 mph 3.7 mph 70% 0 in 0.00 W/m2 unknown
00:34 75.2 °F 66.2 °F 29.7 in West 1.9 mph 3.1 mph 70% 0 in 0.00 W/m2 unknown
00:39 75.2 °F 64.4 °F 29.7 in West 1.9 mph 3.7 mph 69% 0 in 0.00 W/m2 unknown
00:44 75.2 °F 64.4 °F 29.7 in West 2.5 mph 3.7 mph 69% 0 in 0.00 W/m2 unknown
00:49 75.2 °F 64.4 °F 29.7 in West 1.9 mph 3.7 mph 70% 0 in 0.00 W/m2 unknown
00:54 75.2 °F 64.4 °F 29.7 in West 1.2 mph 3.1 mph 70% 0 in 0.00 W/m2 unknown
00:59 75.2 °F 64.4 °F 29.7 in West 1.2 mph 1.2 mph 71% 0 in 0.00 W/m2 unknown
01:04 75.2 °F 64.4 °F 29.7 in WSW 1.2 mph 2.5 mph 72% 0 in 0.00 W/m2 unknown
01:09 75.2 °F 64.4 °F 29.7 in SW 1.2 mph 2.5 mph 73% 0 in 0.00 W/m2 unknown
01:14 73.4 °F 64.4 °F 29.7 in SSW 1.2 mph 2.5 mph 74% 0 in 0.00 W/m2 unknown
01:19 73.4 °F 64.4 °F 29.7 in SSE 1.2 mph 2.5 mph 76% 0 in 0.00 W/m2 unknown
01:24 73.4 °F 64.4 °F 29.7 in SE 1.9 mph 3.7 mph 78% 0 in 0.00 W/m2 unknown
01:29 73.4 °F 64.4 °F 29.7 in SSE 1.9 mph 3.1 mph 78% 0 in 0.00 W/m2 unknown
01:34 73.4 °F 64.4 °F 29.7 in SSW 2.5 mph 3.7 mph 77% 0 in 0.00 W/m2 unknown
01:39 73.4 °F 66.2 °F 29.7 in South 2.5 mph 3.7 mph 77% 0 in 0.00 W/m2 unknown
01:44 73.4 °F 66.2 °F 29.7 in SSW 1.9 mph 3.1 mph 77% 0 in 0.00 W/m2 unknown
01:49 73.4 °F 66.2 °F 29.7 in SSW 1.2 mph 2.5 mph 77% 0 in 0.00 W/m2 unknown
01:54 73.4 °F 66.2 °F 29.7 in Calm   1.9 mph 77% 0 in 0.00 W/m2 unknown
01:59 73.4 °F 64.4 °F 29.7 in Calm     77% 0 in 0.00 W/m2 unknown
02:04 73.4 °F 64.4 °F 29.7 in SSW 1.2 mph 2.5 mph 77% 0 in 0.00 W/m2 unknown
02:09 71.6 °F 64.4 °F 29.7 in SSW 1.2 mph 1.9 mph 78% 0 in 0.00 W/m2 unknown
02:14 73.4 °F 66.2 °F 29.7 in Calm   1.2 mph 78% 0 in 0.00 W/m2 unknown
02:19 73.4 °F 66.2 °F 29.7 in SW 0.6 mph 1.2 mph 78% 0 in 0.00 W/m2 unknown
02:24 73.4 °F 64.4 °F 29.7 in SW 0.6 mph 1.2 mph 78% 0 in 0.00 W/m2 unknown
02:29 71.6 °F 64.4 °F 29.7 in SW 1.9 mph 2.5 mph 78% 0 in 0.00 W/m2 unknown
02:34 71.6 °F 64.4 °F 29.7 in SW 1.9 mph 2.5 mph 78% 0 in 0.00 W/m2 unknown
02:39 71.6 °F 64.4 °F 29.7 in SW 1.2 mph 1.9 mph 78% 0 in 0.00 W/m2 unknown
02:44 71.6 °F 64.4 °F 29.7 in SW 0.6 mph 2.5 mph 77% 0 in 0.00 W/m2 unknown
02:49 71.6 °F 64.4 °F 29.7 in SW 1.9 mph 3.1 mph 78% 0 in 0.00 W/m2 unknown
02:54 71.6 °F 64.4 °F 29.7 in SW 1.9 mph 3.7 mph 79% 0 in 0.00 W/m2 unknown
02:59 71.6 °F 64.4 °F 29.7 in Calm   3.1 mph 79% 0 in 0.00 W/m2 unknown
03:04 71.6 °F 64.4 °F 29.7 in SW 0.6 mph 1.2 mph 79% 0 in 0.00 W/m2 unknown
03:09 71.6 °F 64.4 °F 29.7 in Calm   1.2 mph 80% 0 in 0.00 W/m2 unknown
03:14 71.6 °F 64.4 °F 29.7 in SW 1.2 mph 2.5 mph 80% 0 in 0.00 W/m2 unknown
03:19 71.6 °F 64.4 °F 29.7 in SW 1.9 mph 3.1 mph 81% 0 in 0.00 W/m2 unknown
03:24 71.6 °F 64.4 °F 29.7 in SW 2.5 mph 3.7 mph 82% 0 in 0.00 W/m2 unknown
03:29 71.6 °F 64.4 °F 29.7 in SW 3.1 mph 3.7 mph 83% 0 in 0.00 W/m2 unknown
03:34 71.6 °F 64.4 °F 29.7 in SW 3.1 mph 3.7 mph 83% 0 in 0.00 W/m2 unknown
03:39 71.6 °F 64.4 °F 29.7 in SW 3.1 mph 3.7 mph 82% 0 in 0.00 W/m2 unknown
03:44 71.6 °F 64.4 °F 29.7 in SW 2.5 mph 3.7 mph 82% 0 in 0.00 W/m2 unknown
03:49 69.8 °F 64.4 °F 29.7 in SW 1.9 mph 3.1 mph 83% 0 in 0.00 W/m2 unknown
03:54 69.8 °F 64.4 °F 29.7 in WSW 2.5 mph 3.7 mph 83% 0 in 0.00 W/m2 unknown
03:59 69.8 °F 64.4 °F 29.7 in WSW 3.1 mph 5 mph 83% 0 in 0.00 W/m2 unknown
04:04 69.8 °F 64.4 °F 29.7 in WSW 1.9 mph 5 mph 82% 0 in 0.00 W/m2 unknown
04:09 69.8 °F 64.4 °F 29.7 in SW 1.2 mph 2.5 mph 81% 0 in 0.00 W/m2 unknown
04:14 71.6 °F 64.4 °F 29.7 in WSW 1.9 mph 3.7 mph 81% 0 in 0.00 W/m2 unknown
04:19 71.6 °F 64.4 °F 29.7 in WSW 2.5 mph 3.7 mph 81% 0 in 0.00 W/m2 unknown
04:23 69.8 °F 64.4 °F 29.7 in WSW 1.9 mph 3.7 mph 81% 0 in 0.00 W/m2 unknown
04:29 69.8 °F 64.4 °F 29.7 in WSW 2.5 mph 3.7 mph 82% 0 in 0.00 W/m2 unknown
04:34 69.8 °F 64.4 °F 29.7 in WSW 2.5 mph 3.7 mph 82% 0 in 0.00 W/m2 unknown
04:39 69.8 °F 64.4 °F 29.7 in West 1.2 mph 3.7 mph 82% 0 in 0.00 W/m2 unknown
04:44 71.6 °F 64.4 °F 29.7 in WSW 1.9 mph 2.5 mph 81% 0 in 0.00 W/m2 unknown
04:49 71.6 °F 64.4 °F 29.7 in West 1.2 mph 2.5 mph 81% 0 in 0.00 W/m2 unknown
04:54 71.6 °F 64.4 °F 29.7 in West 1.2 mph 1.9 mph 81% 0 in 0.00 W/m2 unknown
04:59 71.6 °F 64.4 °F 29.7 in Calm   1.2 mph 81% 0 in 0.00 W/m2 unknown
05:04 71.6 °F 64.4 °F 29.7 in WSW 1.9 mph 3.7 mph 81% 0 in 0.00 W/m2 unknown
05:09 71.6 °F 64.4 °F 29.7 in WSW 1.9 mph 3.7 mph 80% 0 in 0.00 W/m2 unknown
05:14 71.6 °F 64.4 °F 29.7 in Calm   3.1 mph 81% 0 in 0.00 W/m2 unknown
05:19 71.6 °F 64.4 °F 29.7 in West 0.6 mph 1.9 mph 81% 0 in 0.00 W/m2 unknown
05:24 71.6 °F 64.4 °F 29.7 in WSW 1.2 mph 2.5 mph 81% 0 in 0.00 W/m2 unknown
05:29 71.6 °F 64.4 °F 29.7 in Calm   1.9 mph 81% 0 in 0.00 W/m2 unknown
05:34 71.6 °F 64.4 °F 29.7 in Calm   1.2 mph 82% 0 in 0.00 W/m2 unknown
05:39 69.8 °F 64.4 °F 29.7 in WSW 1.9 mph 2.5 mph 83% 0 in 0.00 W/m2 unknown
05:44 69.8 °F 64.4 °F 29.7 in WSW 1.9 mph 2.5 mph 83% 0 in 0.00 W/m2 unknown
05:49 69.8 °F 64.4 °F 29.7 in WSW 1.2 mph 2.5 mph 83% 0 in 0.00 W/m2 unknown
05:54 69.8 °F 64.4 °F 29.7 in WSW 1.2 mph 2.5 mph 84% 0 in 0.00 W/m2 unknown
05:59 69.8 °F 64.4 °F 29.7 in WSW 1.2 mph 2.5 mph 84% 0 in 0.00 W/m2 unknown
06:04 69.8 °F 64.4 °F 29.7 in WSW 1.2 mph 2.5 mph 84% 0 in 0.00 W/m2 unknown
06:09 69.8 °F 64.4 °F 29.7 in WSW 1.2 mph 2.5 mph 84% 0 in 0.00 W/m2 unknown
06:14 69.8 °F 64.4 °F 29.7 in WSW 1.2 mph 1.9 mph 84% 0 in 0.00 W/m2 unknown
06:19 69.8 °F 64.4 °F 29.7 in Calm   1.2 mph 84% 0 in 5.00 W/m2 unknown
06:24 69.8 °F 64.4 °F 29.7 in Calm     84% 0 in 9.00 W/m2 unknown
06:29 69.8 °F 64.4 °F 29.7 in Calm     84% 0 in 12.00 W/m2 unknown
06:34 69.8 °F 64.4 °F 29.7 in Calm     85% 0 in 12.00 W/m2 unknown
06:39 69.8 °F 64.4 °F 29.7 in Calm     85% 0 in 16.00 W/m2 unknown
06:44 69.8 °F 64.4 °F 29.7 in Calm     85% 0 in 19.00 W/m2 unknown
06:49 69.8 °F 64.4 °F 29.7 in SW 3.1 mph 3.7 mph 85% 0 in 19.00 W/m2 unknown
06:54 69.8 °F 64.4 °F 29.7 in SW 2.5 mph 3.7 mph 86% 0 in 25.00 W/m2 unknown
06:59 69.8 °F 64.4 °F 29.7 in SW 2.5 mph 3.7 mph 86% 0 in 30.00 W/m2 unknown
07:04 69.8 °F 64.4 °F 29.7 in SW 2.5 mph 3.7 mph 85% 0 in 33.00 W/m2 unknown
07:09 69.8 °F 64.4 °F 29.7 in SW 3.1 mph 3.7 mph 85% 0 in 32.00 W/m2 unknown
07:14 69.8 °F 64.4 °F 29.7 in WSW 2.5 mph 3.7 mph 85% 0 in 32.00 W/m2 unknown
07:19 69.8 °F 64.4 °F 29.7 in WSW 2.5 mph 3.7 mph 84% 0 in 26.00 W/m2 unknown
07:24 69.8 °F 64.4 °F 29.7 in WSW 2.5 mph 3.7 mph 83% 0 in 35.00 W/m2 unknown
07:29 69.8 °F 64.4 °F 29.7 in SW 3.1 mph 3.7 mph 83% 0 in 39.00 W/m2 unknown
07:34 71.6 °F 66.2 °F 29.7 in WSW 2.5 mph 3.7 mph 83% 0 in 32.00 W/m2 unknown
07:39 71.6 °F 66.2 °F 29.7 in WSW 2.5 mph 3.7 mph 82% 0 in 49.00 W/m2 unknown
07:44 71.6 °F 66.2 °F 29.7 in WSW 3.1 mph 3.7 mph 82% 0 in 54.00 W/m2 unknown
07:49 71.6 °F 64.4 °F 29.7 in WSW 2.5 mph 3.7 mph 81% 0 in 67.00 W/m2 unknown
07:54 71.6 °F 64.4 °F 29.7 in WSW 1.2 mph 3.1 mph 81% 0 in 72.00 W/m2 unknown
07:59 71.6 °F 64.4 °F 29.7 in WSW 1.2 mph 2.5 mph 81% 0 in 83.00 W/m2 unknown
08:04 71.6 °F 64.4 °F 29.7 in WSW 1.9 mph 2.5 mph 81% 0 in 86.00 W/m2 unknown
08:09 71.6 °F 64.4 °F 29.7 in WSW 2.5 mph 3.7 mph 81% 0 in 121.00 W/m2 unknown
08:14 71.6 °F 66.2 °F 29.7 in West 1.2 mph 3.1 mph 82% 0 in 172.00 W/m2 unknown
08:19 71.6 °F 66.2 °F 29.7 in WNW 2.5 mph 3.7 mph 82% 0 in 188.00 W/m2 unknown
08:24 71.6 °F 66.2 °F 29.7 in WNW 2.5 mph 3.7 mph 79% 0 in 207.00 W/m2 unknown
08:29 73.4 °F 64.4 °F 29.7 in West 3.1 mph 3.7 mph 78% 0 in 227.00 W/m2 unknown
08:34 73.4 °F 66.2 °F 29.7 in West 3.7 mph 5 mph 77% 0 in 246.00 W/m2 unknown
08:39 73.4 °F 66.2 °F 29.7 in WNW 3.7 mph 5 mph 77% 0 in 260.00 W/m2 unknown
08:44 73.4 °F 66.2 °F 29.7 in WNW 3.7 mph 5 mph 76% 0 in 274.00 W/m2 unknown
08:49 73.4 °F 66.2 °F 29.7 in WNW 3.1 mph 5 mph 77% 0 in 287.00 W/m2 unknown
08:54 75.2 °F 66.2 °F 29.7 in WNW 3.1 mph 3.7 mph 76% 0 in 302.00 W/m2 unknown
08:59 75.2 °F 66.2 °F 29.7 in West 2.5 mph 3.7 mph 76% 0 in 318.00 W/m2 unknown
09:04 75.2 °F 66.2 °F 29.7 in West 3.1 mph 3.7 mph 75% 0 in 330.00 W/m2 unknown
09:09 75.2 °F 66.2 °F 29.7 in WSW 3.7 mph 3.7 mph 74% 0 in 346.00 W/m2 unknown
09:14 75.2 °F 66.2 °F 29.7 in West 3.1 mph 3.7 mph 73% 0 in 360.00 W/m2 unknown
09:19 77 °F 66.2 °F 29.7 in WNW 3.1 mph 3.7 mph 73% 0 in 374.00 W/m2 unknown
09:24 77 °F 66.2 °F 29.7 in WNW 1.9 mph 3.7 mph 70% 0 in 388.00 W/m2 unknown
09:29 77 °F 66.2 °F 29.7 in West 2.5 mph 3.7 mph 69% 0 in 404.00 W/m2 unknown
09:34 77 °F 66.2 °F 29.7 in WNW 1.9 mph 3.7 mph 68% 0 in 417.00 W/m2 unknown
09:39 78.8 °F 66.2 °F 29.7 in WNW 2.5 mph 3.7 mph 68% 0 in 431.00 W/m2 unknown
09:44 78.8 °F 66.2 °F 29.7 in WSW 2.5 mph 3.7 mph 69% 0 in 438.00 W/m2 unknown
09:49 78.8 °F 66.2 °F 29.7 in WSW 1.9 mph 3.7 mph 68% 0 in 459.00 W/m2 unknown
09:54 78.8 °F 68 °F 29.7 in WSW 3.1 mph 3.7 mph 67% 0 in 471.00 W/m2 unknown
09:59 78.8 °F 68 °F 29.7 in WSW 2.5 mph 3.7 mph 67% 0 in 482.00 W/m2 unknown
10:04 78.8 °F 68 °F 29.7 in West 3.7 mph 5 mph 68% 0 in 496.00 W/m2 unknown
10:09 78.8 °F 68 °F 29.7 in West 3.7 mph 5 mph 67% 0 in 506.00 W/m2 unknown
10:14 80.6 °F 68 °F 29.7 in WSW 6.2 mph 6.8 mph 66% 0 in 522.00 W/m2 unknown
10:19 80.6 °F 66.2 °F 29.7 in WSW 6.2 mph 6.8 mph 64% 0 in 538.00 W/m2 unknown
10:24 80.6 °F 66.2 °F 29.7 in WNW 3.1 mph 6.2 mph 62% 0 in 548.00 W/m2 unknown
10:29 80.6 °F 66.2 °F 29.7 in West 3.1 mph 6.2 mph 61% 0 in 555.00 W/m2 unknown
10:34 82.4 °F 66.2 °F 29.7 in WNW 5 mph 6.2 mph 61% 0 in 568.00 W/m2 unknown
10:39 82.4 °F 66.2 °F 29.7 in West 4.3 mph 6.2 mph 58% 0 in 585.00 W/m2 unknown
10:44 82.4 °F 66.2 °F 29.7 in West 5 mph 8.1 mph 57% 0 in 596.00 W/m2 unknown
10:49 82.4 °F 66.2 °F 29.7 in NW 5.6 mph 8.1 mph 57% 0 in 613.00 W/m2 unknown
10:54 82.4 °F 62.6 °F 29.7 in WNW 5 mph 8.1 mph 51% 0 in 626.00 W/m2 unknown
10:59 82.4 °F 64.4 °F 29.7 in NW 5 mph 6.8 mph 54% 0 in 635.00 W/m2 unknown
11:04 82.4 °F 64.4 °F 29.7 in NW 5 mph 6.8 mph 54% 0 in 643.00 W/m2 unknown
11:09 84.2 °F 64.4 °F 29.7 in NW 3.7 mph 6.2 mph 53% 0 in 652.00 W/m2 unknown
11:14 84.2 °F 64.4 °F 29.7 in WNW 5.6 mph 6.8 mph 52% 0 in 659.00 W/m2 unknown
11:19 84.2 °F 64.4 °F 29.7 in NW 6.8 mph 8.1 mph 53% 0 in 677.00 W/m2 unknown
11:24 84.2 °F 64.4 °F 29.7 in NW 6.8 mph 8.1 mph 52% 0 in 686.00 W/m2 unknown
11:29 84.2 °F 66.2 °F 29.7 in NNW 5 mph 8.1 mph 53% 0 in 696.00 W/m2 unknown
11:34 84.2 °F 64.4 °F 29.7 in NW 5.6 mph 6.8 mph 51% 0 in 707.00 W/m2 unknown
11:39 84.2 °F 64.4 °F 29.7 in NNW 6.2 mph 6.8 mph 52% 0 in 717.00 W/m2 unknown
11:44 84.2 °F 64.4 °F 29.7 in NW 4.3 mph 6.8 mph 51% 0 in 745.00 W/m2 unknown
11:49 86 °F 66.2 °F 29.7 in NW 5 mph 8.1 mph 53% 0 in 745.00 W/m2 unknown
11:54 86 °F 64.4 °F 29.7 in WNW 6.2 mph 8.1 mph 50% 0 in 756.00 W/m2 unknown
11:59 86 °F 64.4 °F 29.7 in NNW 5 mph 8.1 mph 49% 0 in 756.00 W/m2 unknown
12:04 86 °F 66.2 °F 29.7 in NW 5 mph 8.1 mph 51% 0 in 596.00 W/m2 unknown
12:09 86 °F 62.6 °F 29.7 in NW 5.6 mph 8.1 mph 48% 0 in 691.00 W/m2 unknown
12:14 86 °F 64.4 °F 29.7 in NW 6.8 mph 11.8 mph 48% 0 in 654.00 W/m2 unknown
12:19 86 °F 66.2 °F 29.7 in NW 6.8 mph 11.8 mph 51% 0 in 550.00 W/m2 unknown
12:24 86 °F 62.6 °F 29.7 in WNW 6.2 mph 11.8 mph 47% 0 in 515.00 W/m2 unknown
12:29 86 °F 62.6 °F 29.7 in WNW 5.6 mph 9.3 mph 48% 0 in 533.00 W/m2 unknown
12:34 86 °F 62.6 °F 29.7 in NW 6.2 mph 8.7 mph 48% 0 in 533.00 W/m2 unknown
12:39 84.2 °F 62.6 °F 29.7 in NNW 6.8 mph 10.6 mph 48% 0 in 394.00 W/m2 unknown
12:44 86 °F 64.4 °F 29.7 in North 6.8 mph 9.9 mph 49% 0 in 385.00 W/m2 unknown
12:49 86 °F 64.4 °F 29.7 in NNW 6.2 mph 8.1 mph 49% 0 in 376.00 W/m2 unknown
12:54 84.2 °F 64.4 °F 29.7 in NW 6.2 mph 8.1 mph 49% 0 in 383.00 W/m2 unknown
12:59 84.2 °F 62.6 °F 29.7 in WNW 3.7 mph 8.1 mph 48% 0 in 397.00 W/m2 unknown
13:04 84.2 °F 62.6 °F 29.7 in WNW 4.3 mph 6.2 mph 48% 0 in 413.00 W/m2 unknown
13:09 84.2 °F 64.4 °F 29.7 in NE 5 mph 8.1 mph 50% 0 in 424.00 W/m2 unknown
13:14 84.2 °F 64.4 °F 29.7 in NE 5 mph 8.1 mph 51% 0 in 390.00 W/m2 unknown
13:19 84.2 °F 64.4 °F 29.7 in ENE 6.2 mph 8.1 mph 52% 0 in 371.00 W/m2 unknown
13:24 84.2 °F 64.4 °F 29.7 in East 5.6 mph 8.1 mph 52% 0 in 329.00 W/m2 unknown
13:29 84.2 °F 64.4 °F 29.7 in ENE 3.1 mph 6.2 mph 54% 0 in 309.00 W/m2 unknown
13:34 84.2 °F 64.4 °F 29.7 in ENE 2.5 mph 6.2 mph 54% 0 in 301.00 W/m2 unknown
13:39 84.2 °F 64.4 °F 29.7 in East 3.7 mph 6.2 mph 53% 0 in 308.00 W/m2 unknown
13:44 84.2 °F 66.2 °F 29.7 in ESE 3.7 mph 5 mph 57% 0 in 336.00 W/m2 unknown
13:49 82.4 °F 66.2 °F 29.7 in ESE 3.1 mph 5 mph 57% 0 in 369.00 W/m2 unknown
13:54 82.4 °F 64.4 °F 29.7 in ESE 3.1 mph 3.7 mph 54% 0 in 369.00 W/m2 unknown
13:59 82.4 °F 64.4 °F 29.7 in ESE 3.1 mph 3.7 mph 53% 0 in 360.00 W/m2 unknown
14:04 84.2 °F 64.4 °F 29.7 in SE 2.5 mph 3.7 mph 54% 0 in 315.00 W/m2 unknown
14:09 84.2 °F 66.2 °F 29.7 in ESE 3.1 mph 5 mph 54% 0 in 740.00 W/m2 unknown
14:14 84.2 °F 64.4 °F 29.7 in East 5.6 mph 6.8 mph 51% 0 in 689.00 W/m2 unknown
14:19 86 °F 64.4 °F 29.7 in East 6.2 mph 6.8 mph 50% 0 in 879.00 W/m2 unknown
14:24 86 °F 66.2 °F 29.7 in ENE 5.6 mph 6.8 mph 51% 0 in 853.00 W/m2 unknown
14:29 86 °F 64.4 °F 29.7 in NE 4.3 mph 8.1 mph 49% 0 in 824.00 W/m2 unknown
14:34 87.8 °F 64.4 °F 29.7 in NE 4.3 mph 8.1 mph 49% 0 in 812.00 W/m2 unknown
14:39 87.8 °F 64.4 °F 29.7 in ENE 5 mph 8.1 mph 47% 0 in 802.00 W/m2 unknown
14:44 86 °F 64.4 °F 29.7 in ENE 5.6 mph 8.1 mph 49% 0 in 789.00 W/m2 unknown
14:49 86 °F 64.4 °F 29.7 in ENE 5.6 mph 8.1 mph 49% 0 in 788.00 W/m2 unknown
14:54 86 °F 66.2 °F 29.7 in ENE 5 mph 8.1 mph 51% 0 in 782.00 W/m2 unknown
14:59 87.8 °F 66.2 °F 29.7 in ENE 6.8 mph 8.1 mph 49% 0 in 772.00 W/m2 unknown
15:04 87.8 °F 64.4 °F 29.7 in NNE 6.8 mph 8.1 mph 48% 0 in 768.00 W/m2 unknown
15:09 87.8 °F 66.2 °F 29.7 in North 5 mph 8.1 mph 48% 0 in 765.00 W/m2 unknown
15:14 87.8 °F 66.2 °F 29.7 in East 5.6 mph 8.1 mph 49% 0 in 756.00 W/m2 unknown
15:19 87.8 °F 66.2 °F 29.7 in NNE 3.1 mph 8.1 mph 49% 0 in 749.00 W/m2 unknown
15:24 87.8 °F 66.2 °F 29.7 in NNE 4.3 mph 6.8 mph 50% 0 in 738.00 W/m2 unknown
15:29 87.8 °F 66.2 °F 29.7 in East 5.6 mph 6.8 mph 48% 0 in 737.00 W/m2 unknown
15:34 87.8 °F 66.2 °F 29.7 in ESE 5 mph 6.8 mph 50% 0 in 733.00 W/m2 unknown
15:39 87.8 °F 66.2 °F 29.7 in NE 5 mph 6.8 mph 49% 0 in 715.00 W/m2 unknown
15:44 87.8 °F 66.2 °F 29.7 in NE 4.3 mph 6.8 mph 49% 0 in 649.00 W/m2 unknown
15:49 87.8 °F 64.4 °F 29.7 in ENE 5 mph 6.2 mph 48% 0 in 411.00 W/m2 unknown
15:54 86 °F 64.4 °F 29.7 in East 3.1 mph 6.2 mph 49% 0 in 411.00 W/m2 unknown
15:59 86 °F 64.4 °F 29.7 in NE 3.1 mph 5 mph 49% 0 in 497.00 W/m2 unknown
16:04 86 °F 64.4 °F 29.7 in NE 3.7 mph 6.2 mph 49% 0 in 645.00 W/m2 unknown
16:09 86 °F 64.4 °F 29.7 in ENE 3.7 mph 6.2 mph 48% 0 in 752.00 W/m2 unknown
16:14 87.8 °F 66.2 °F 29.7 in SE 3.7 mph 5 mph 51% 0 in 768.00 W/m2 unknown
16:19 87.8 °F 66.2 °F 29.7 in ESE 5.6 mph 6.8 mph 51% 0 in 645.00 W/m2 unknown
16:24 86 °F 66.2 °F 29.7 in ESE 5 mph 6.8 mph 52% 0 in 578.00 W/m2 unknown
16:29 86 °F 66.2 °F 29.7 in ESE 4.3 mph 6.2 mph 51% 0 in 738.00 W/m2 unknown
16:34 87.8 °F 66.2 °F 29.7 in ESE 3.7 mph 6.2 mph 52% 0 in 679.00 W/m2 unknown
16:39 87.8 °F 66.2 °F 29.7 in ENE 3.7 mph 5 mph 50% 0 in 668.00 W/m2 unknown
16:44 87.8 °F 66.2 °F 29.7 in ESE 4.3 mph 6.2 mph 50% 0 in 626.00 W/m2 unknown
16:49 87.8 °F 66.2 °F 29.7 in ESE 3.1 mph 6.2 mph 49% 0 in 601.00 W/m2 unknown
16:54 87.8 °F 66.2 °F 29.7 in SE 5 mph 6.8 mph 50% 0 in 557.00 W/m2 unknown
16:59 87.8 °F 66.2 °F 29.7 in SE 5 mph 6.8 mph 49% 0 in 541.00 W/m2 unknown
17:04 87.8 °F 68 °F 29.7 in East 3.7 mph 6.2 mph 53% 0 in 533.00 W/m2 unknown
17:09 87.8 °F 66.2 °F 29.7 in East 5 mph 6.2 mph 51% 0 in 533.00 W/m2 unknown
17:14 86 °F 66.2 °F 29.7 in ESE 5 mph 6.2 mph 53% 0 in 250.00 W/m2 unknown
17:19 86 °F 66.2 °F 29.7 in ENE 3.7 mph 4.3 mph 54% 0 in 206.00 W/m2 unknown
17:24 86 °F 66.2 °F 29.7 in ENE 3.1 mph 5 mph 51% 0 in 281.00 W/m2 unknown
17:29 86 °F 66.2 °F 29.7 in ENE 3.1 mph 3.7 mph 52% 0 in 408.00 W/m2 unknown
17:34 87.8 °F 66.2 °F 29.7 in ENE 3.7 mph 3.7 mph 51% 0 in 561.00 W/m2 unknown
17:39 87.8 °F 66.2 °F 29.7 in NE 5 mph 6.8 mph 49% 0 in 374.00 W/m2 unknown
17:44 87.8 °F 66.2 °F 29.7 in NE 5 mph 6.8 mph 49% 0 in 318.00 W/m2 unknown
17:49 87.8 °F 66.2 °F 29.7 in NE 4.3 mph 6.8 mph 50% 0 in 128.00 W/m2 unknown
17:54 87.8 °F 66.2 °F 29.7 in NE 4.3 mph 6.8 mph 49% 0 in 399.00 W/m2 unknown
17:59 87.8 °F 66.2 °F 29.7 in NNE 3.7 mph 5 mph 50% 0 in 392.00 W/m2 unknown
18:04 87.8 °F 66.2 °F 29.7 in ENE 3.1 mph 5 mph 50% 0 in 376.00 W/m2 unknown
18:09 87.8 °F 66.2 °F 29.7 in NNE 3.7 mph 5 mph 49% 0 in 357.00 W/m2 unknown
18:14 87.8 °F 66.2 °F 29.7 in NNE 3.1 mph 5 mph 49% 0 in 334.00 W/m2 unknown
18:19 87.8 °F 66.2 °F 29.7 in NE 3.1 mph 5 mph 49% 0 in 315.00 W/m2 unknown
18:24 87.8 °F 66.2 °F 29.7 in ENE 2.5 mph 3.7 mph 50% 0 in 297.00 W/m2 unknown
18:29 87.8 °F 66.2 °F 29.7 in NE 2.5 mph 3.7 mph 49% 0 in 283.00 W/m2 unknown
18:34 87.8 °F 66.2 °F 29.7 in NNE 4.3 mph 5 mph 50% 0 in 265.00 W/m2 unknown
18:39 87.8 °F 66.2 °F 29.7 in NE 4.3 mph 5 mph 50% 0 in 253.00 W/m2 unknown
18:44 87.8 °F 66.2 °F 29.7 in NE 3.7 mph 5 mph 50% 0 in 236.00 W/m2 unknown
18:49 87.8 °F 66.2 °F 29.7 in NE 4.3 mph 6.2 mph 51% 0 in 221.00 W/m2 unknown
18:54 87.8 °F 66.2 °F 29.6 in NNE 5 mph 6.2 mph 51% 0 in 204.00 W/m2 unknown
18:59 87.8 °F 66.2 °F 29.6 in NE 3.7 mph 6.2 mph 51% 0 in 185.00 W/m2 unknown
19:04 86 °F 66.2 °F 29.6 in NNE 3.7 mph 5 mph 52% 0 in 165.00 W/m2 unknown
19:09 86 °F 66.2 °F 29.6 in NNE 3.7 mph 5 mph 53% 0 in 102.00 W/m2 unknown
19:14 86 °F 66.2 °F 29.6 in NE 3.1 mph 5 mph 54% 0 in 28.00 W/m2 unknown
19:19 86 °F 68 °F 29.6 in NE 3.1 mph 5 mph 55% 0 in 19.00 W/m2 unknown
19:24 86 °F 68 °F 29.6 in ENE 1.9 mph 5 mph 56% 0 in 19.00 W/m2 unknown
19:29 84.2 °F 68 °F 29.6 in NNE 1.9 mph 3.7 mph 57% 0 in 21.00 W/m2 unknown
19:34 84.2 °F 68 °F 29.7 in NNE 3.1 mph 3.7 mph 57% 0 in 23.00 W/m2 unknown
19:39 84.2 °F 66.2 °F 29.7 in NE 3.7 mph 3.7 mph 56% 0 in 23.00 W/m2 unknown
19:44 84.2 °F 66.2 °F 29.7 in NNE 3.1 mph 3.7 mph 57% 0 in 21.00 W/m2 unknown
19:49 84.2 °F 68 °F 29.7 in NNE 2.5 mph 3.7 mph 58% 0 in 19.00 W/m2 unknown
19:54 82.4 °F 66.2 °F 29.7 in NE 3.1 mph 3.7 mph 58% 0 in 16.00 W/m2 unknown
19:59 82.4 °F 68 °F 29.7 in NE 3.7 mph 5 mph 59% 0 in 12.00 W/m2 unknown
20:04 82.4 °F 66.2 °F 29.7 in NE 3.1 mph 5 mph 58% 0 in 7.00 W/m2 unknown
20:09 82.4 °F 66.2 °F 29.7 in NE 2.5 mph 3.7 mph 58% 0 in 5.00 W/m2 unknown
20:14 82.4 °F 68 °F 29.7 in ENE 1.9 mph 3.7 mph 60% 0 in 0.00 W/m2 unknown
20:19 82.4 °F 68 °F 29.7 in ENE 1.9 mph 3.7 mph 60% 0 in 0.00 W/m2 unknown
20:24 82.4 °F 68 °F 29.7 in ENE 2.5 mph 3.7 mph 62% 0 in 0.00 W/m2 unknown
20:29 82.4 °F 68 °F 29.7 in ENE 1.9 mph 3.7 mph 63% 0 in 0.00 W/m2 unknown
20:34 80.6 °F 68 °F 29.7 in ENE 2.5 mph 3.7 mph 64% 0 in 0.00 W/m2 unknown
20:39 80.6 °F 68 °F 29.7 in ENE 3.1 mph 5 mph 64% 0 in 0.00 W/m2 unknown
20:44 80.6 °F 68 °F 29.7 in ENE 1.9 mph 5 mph 64% 0 in 0.00 W/m2 unknown
20:49 80.6 °F 66.2 °F 29.7 in ENE 1.2 mph 3.1 mph 62% 0 in 0.00 W/m2 unknown
20:54 80.6 °F 66.2 °F 29.7 in ENE 1.9 mph 2.5 mph 62% 0 in 0.00 W/m2 unknown
20:59 80.6 °F 68 °F 29.7 in ENE 1.9 mph 2.5 mph 64% 0 in 0.00 W/m2 unknown
21:04 80.6 °F 66.2 °F 29.7 in East 1.9 mph 2.5 mph 64% 0 in 0.00 W/m2 unknown
21:09 80.6 °F 68 °F 29.7 in East 1.9 mph 2.5 mph 66% 0 in 0.00 W/m2 unknown
21:14 80.6 °F 68 °F 29.7 in East 1.2 mph 1.9 mph 66% 0 in 0.00 W/m2 unknown
21:19 80.6 °F 68 °F 29.7 in ESE 1.2 mph 2.5 mph 65% 0 in 0.00 W/m2 unknown
21:24 80.6 °F 68 °F 29.7 in SSE 1.2 mph 2.5 mph 66% 0 in 0.00 W/m2 unknown
21:29 80.6 °F 68 °F 29.7 in SE 1.9 mph 3.7 mph 66% 0 in 0.00 W/m2 unknown
21:34 80.6 °F 68 °F 29.7 in ESE 3.7 mph 5 mph 67% 0 in 0.00 W/m2 unknown
21:39 80.6 °F 66.2 °F 29.7 in ESE 3.7 mph 5 mph 65% 0 in 0.00 W/m2 unknown
21:44 80.6 °F 66.2 °F 29.7 in East 3.7 mph 5 mph 65% 0 in 0.00 W/m2 unknown
21:49 80.6 °F 66.2 °F 29.7 in East 3.1 mph 5 mph 63% 0 in 0.00 W/m2 unknown
21:54 80.6 °F 66.2 °F 29.7 in ESE 3.1 mph 5 mph 64% 0 in 0.00 W/m2 unknown
21:59 80.6 °F 66.2 °F 29.7 in East 3.1 mph 5 mph 65% 0 in 0.00 W/m2 unknown
22:04 78.8 °F 68 °F 29.7 in ESE 1.9 mph 5 mph 66% 0 in 0.00 W/m2 unknown
22:09 78.8 °F 68 °F 29.7 in SSE 1.2 mph 3.7 mph 67% 0 in 0.00 W/m2 unknown
22:14 78.8 °F 68 °F 29.7 in SSE 1.2 mph 3.7 mph 67% 0 in 0.00 W/m2 unknown
22:19 78.8 °F 68 °F 29.7 in SSW 1.9 mph 3.1 mph 67% 0 in 0.00 W/m2 unknown
22:24 78.8 °F 68 °F 29.7 in SW 1.9 mph 2.5 mph 67% 0 in 0.00 W/m2 unknown
22:29 78.8 °F 68 °F 29.7 in WSW 3.7 mph 5 mph 68% 0 in 0.00 W/m2 unknown
22:34 78.8 °F 68 °F 29.7 in WNW 13 mph 21.7 mph 69% 0 in 0.00 W/m2 unknown
22:39 78.8 °F 68 °F 29.7 in NW 14.9 mph 21.7 mph 68% 0 in 0.00 W/m2 unknown
22:44 78.8 °F 64.4 °F 29.7 in NNW 14.9 mph 21.1 mph 65% 0 in 0.00 W/m2 unknown
22:49 77 °F 64.4 °F 29.7 in NNW 13.7 mph 18.6 mph 66% 0 in 0.00 W/m2 unknown
22:54 77 °F 64.4 °F 29.7 in NNW 8.7 mph 18 mph 69% 0 in 0.00 W/m2 unknown
22:59 75.2 °F 64.4 °F 29.7 in North 7.5 mph 14.9 mph 70% 0 in 0.00 W/m2 unknown
23:04 75.2 °F 64.4 °F 29.7 in North 6.2 mph 9.9 mph 71% 0 in 0.00 W/m2 unknown
23:09 75.2 °F 64.4 °F 29.7 in NNW 5.6 mph 8.7 mph 71% 0 in 0.00 W/m2 unknown
23:14 73.4 °F 64.4 °F 29.7 in NNW 6.2 mph 9.3 mph 71% 0 in 0.00 W/m2 unknown
23:19 73.4 °F 64.4 °F 29.7 in NNW 5 mph 6.8 mph 72% 0 in 0.00 W/m2 unknown
23:24 73.4 °F 64.4 °F 29.7 in NW 5 mph 6.8 mph 72% 0 in 0.00 W/m2 unknown
23:29 73.4 °F 64.4 °F 29.7 in NNW 4.3 mph 6.8 mph 72% 0 in 0.00 W/m2 unknown
23:34 73.4 °F 64.4 °F 29.7 in North 3.7 mph 6.8 mph 73% 0 in 0.00 W/m2 unknown
23:39 73.4 °F 64.4 °F 29.7 in NNE 1.9 mph 5 mph 74% 0 in 0.00 W/m2 unknown
23:44 73.4 °F 64.4 °F 29.7 in North 1.2 mph 3.7 mph 74% 0 in 0.00 W/m2 unknown
23:49 73.4 °F 64.4 °F 29.7 in ENE 3.7 mph 6.2 mph 74% 0 in 0.00 W/m2 unknown
23:54 73.4 °F 64.4 °F 29.7 in ENE 5 mph 6.8 mph 75% 0 in 0.00 W/m2 unknown
23:59 73.4 °F 64.4 °F 29.7 in ENE 7.5 mph 9.3 mph 77% 0 in 0.00 W/m2 unknown
Stazione Meteorologica MeteoMincio Rivalta s/M (MN)
Con i complimenti di Weather Underground - 4 mb



GLOSSARIO METEOROLOGICO
Nebbia
Sospensione nell'atmosfera di piccolissime gocce d'acqua, che riduce generalmente la visibilità orizzontale sulla superficie terrestre a meno di un chilometro.
Share

Non seguire questo link o sarai bannato dal sito!